Main page
METAR-TAF:

METAR-TAF

Airports :

Al Hoceima, Morocco

Cherif Al Idrissi Airport

latitude: 35-11N, longitude: 003-51W, elevation: 27 m

Current weather observation

The report was made 53 minutes ago, at 16:00 UTC
Wind 6 kt from the North/Northeast
Temperature 28°C
Humidity 48%
Pressure 1013 hPa
Visibility 10 km or more
no clouds below 1500 m and no cumulonimbus

METAR: GMTA 221600Z 02006KT CAVOK 28/16 Q1013 NOSIG

Time: 17:53 (16:53 UTC)

Forecast

The report was made 5 hours and 53 minutes ago, at 11:00 UTC
Forecast valid from 22 at 12 UTC to 23 at 18 UTC
Wind 5 kt from the North
Visibility 10 km or more
no clouds below 1500 m and no cumulonimbus

TAF: GMTA 221100Z 2212/2318 35005KT CAVOK

Weather observations and forecasts of more than 4000 airports (METAR and TAF reports).

The available stations are represented by yellow and red dots on the map.

Hover mouse over dot to see the name of the station.

Then click to see weather observations and forecasts.

To change the map : click on the green buttons with a black cross to zoom in, on the green button with a dash to zoom out, or on the green arrows for adjacent maps.


METAR-TAF: